createdAt,value
2019-01-24T00:00:14.919Z,38.65
2019-01-24T00:02:43.135Z,42.10
2019-01-24T00:05:11.345Z,40.83
2019-01-24T00:07:39.579Z,39.83
2019-01-24T00:10:11.042Z,40.28
2019-01-24T00:12:39.243Z,40.43
2019-01-24T00:15:09.008Z,41.02
2019-01-24T00:17:37.218Z,39.95
2019-01-24T00:20:08.150Z,39.58
2019-01-24T00:22:36.378Z,39.65
2019-01-24T00:25:07.704Z,38.55
2019-01-24T00:27:35.935Z,38.78
2019-01-24T00:30:11.096Z,40.25
2019-01-24T00:32:39.287Z,41.60
2019-01-24T00:35:08.326Z,42.70
2019-01-24T00:37:36.547Z,42.25
2019-01-24T00:40:13.754Z,42.03
2019-01-24T00:42:42.001Z,40.73
2019-01-24T00:45:10.201Z,39.25
2019-01-24T00:47:38.402Z,42.90
2019-01-24T00:50:09.280Z,42.03
2019-01-24T00:52:37.469Z,42.00
2019-01-24T00:55:09.110Z,40.28
2019-01-24T00:57:37.326Z,40.75
2019-01-24T01:00:14.590Z,41.02
2019-01-24T01:02:42.914Z,41.08
2019-01-24T01:05:12.588Z,42.43
2019-01-24T01:07:40.785Z,42.80
2019-01-24T01:10:10.151Z,41.70
2019-01-24T01:12:38.440Z,40.75
2019-01-24T01:15:09.787Z,40.67
2019-01-24T01:17:38.016Z,41.75
2019-01-24T01:20:11.863Z,43.35
2019-01-24T01:22:40.062Z,43.02
2019-01-24T01:25:10.304Z,43.17
2019-01-24T01:27:38.502Z,41.92
2019-01-24T01:30:09.962Z,42.50
2019-01-24T01:32:38.182Z,43.02
2019-01-24T01:35:06.815Z,42.40
2019-01-24T01:37:37.702Z,42.70
2019-01-24T01:40:09.263Z,43.87
2019-01-24T01:42:37.453Z,43.15
2019-01-24T01:45:08.783Z,41.60
2019-01-24T01:47:37.018Z,44.67
2019-01-24T01:50:08.485Z,43.35
2019-01-24T01:52:36.675Z,42.17
2019-01-24T01:55:05.867Z,42.35
2019-01-24T01:57:34.070Z,44.40
2019-01-24T02:00:02.271Z,43.23
2019-01-24T02:02:30.508Z,45.83
2019-01-24T02:04:58.705Z,43.78
2019-01-24T02:07:26.910Z,42.03
2019-01-24T02:09:55.150Z,42.78
2019-01-24T02:12:23.359Z,41.08
2019-01-24T02:14:51.555Z,43.42
2019-01-24T02:17:21.026Z,46.25
2019-01-24T02:19:49.252Z,44.27
2019-01-24T02:22:17.485Z,44.67
2019-01-24T02:24:45.746Z,45.03
2019-01-24T02:27:13.983Z,44.77
2019-01-24T02:29:42.206Z,44.53
2019-01-24T02:32:10.463Z,44.18
2019-01-24T02:34:39.452Z,42.73
2019-01-24T02:37:07.685Z,45.03
2019-01-24T02:39:35.968Z,42.60
2019-01-24T02:42:04.201Z,42.58
2019-01-24T02:44:32.437Z,44.53
2019-01-24T02:47:00.700Z,43.63
2019-01-24T02:49:28.942Z,44.42
2019-01-24T02:51:57.180Z,45.17
2019-01-24T02:54:25.452Z,43.80
2019-01-24T02:56:53.676Z,43.70
2019-01-24T02:59:21.904Z,42.95
2019-01-24T03:01:50.160Z,46.80
2019-01-24T03:04:18.387Z,44.70
2019-01-24T03:06:46.637Z,46.88
2019-01-24T03:09:14.896Z,46.90
2019-01-24T03:11:43.132Z,47.13
2019-01-24T03:14:11.414Z,47.03
2019-01-24T03:16:39.675Z,48.30
2019-01-24T03:19:07.915Z,46.50
2019-01-24T03:21:36.151Z,47.10
2019-01-24T03:24:04.404Z,46.00
2019-01-24T03:26:32.624Z,47.38
2019-01-24T03:29:00.851Z,48.48
2019-01-24T03:31:29.515Z,48.75
2019-01-24T03:33:57.744Z,48.90
2019-01-24T03:36:26.747Z,50.03
2019-01-24T03:38:55.008Z,48.83
2019-01-24T03:41:23.236Z,49.75
2019-01-24T03:43:51.465Z,49.90
2019-01-24T03:46:19.738Z,49.27
2019-01-24T03:48:47.984Z,50.38
2019-01-24T03:51:16.215Z,51.40
2019-01-24T03:53:44.480Z,50.10
2019-01-24T03:56:12.729Z,49.38
2019-01-24T03:58:41.259Z,51.23
2019-01-24T04:01:09.544Z,48.28
2019-01-24T04:03:37.783Z,48.70
2019-01-24T04:06:06.036Z,51.70
2019-01-24T04:08:34.291Z,51.70
2019-01-24T04:11:02.527Z,50.83
2019-01-24T04:13:30.851Z,50.60
2019-01-24T04:15:59.109Z,50.75
2019-01-24T04:18:27.342Z,49.53
2019-01-24T04:20:55.585Z,50.35
2019-01-24T04:23:23.871Z,50.00
2019-01-24T04:25:52.108Z,53.13
2019-01-24T04:28:20.351Z,51.20
2019-01-24T04:30:48.612Z,50.10
2019-01-24T04:33:16.842Z,47.38
2019-01-24T04:35:45.064Z,46.73
2019-01-24T04:38:14.182Z,52.03
2019-01-24T04:40:42.409Z,51.85
2019-01-24T04:43:10.678Z,49.85
2019-01-24T04:45:38.935Z,50.33
2019-01-24T04:48:07.164Z,47.95
2019-01-24T04:50:35.398Z,50.38
2019-01-24T04:53:03.664Z,48.25
2019-01-24T04:55:31.904Z,50.40
2019-01-24T04:58:00.137Z,48.92
2019-01-24T05:00:29.833Z,48.83
2019-01-24T05:02:58.079Z,49.15
2019-01-24T05:05:27.820Z,49.77
2019-01-24T05:07:56.463Z,49.40
2019-01-24T05:10:24.932Z,50.40
2019-01-24T05:12:53.178Z,50.25
2019-01-24T05:15:21.448Z,48.02
2019-01-24T05:17:49.673Z,48.50
2019-01-24T05:20:17.907Z,49.93
2019-01-24T05:22:46.213Z,49.38
2019-01-24T05:25:16.099Z,49.83
2019-01-24T05:27:44.392Z,50.23
2019-01-24T05:30:15.909Z,51.05
2019-01-24T05:32:44.135Z,49.95
2019-01-24T05:35:12.369Z,50.90
2019-01-24T05:37:40.653Z,49.35
2019-01-24T05:40:10.020Z,47.23
2019-01-24T05:42:38.284Z,46.88
2019-01-24T05:45:09.757Z,49.88
2019-01-24T05:47:37.984Z,49.25
2019-01-24T05:50:09.162Z,48.27
2019-01-24T05:52:37.517Z,48.23
2019-01-24T05:55:07.917Z,48.13
2019-01-24T05:57:36.149Z,47.73
2019-01-24T06:00:10.400Z,49.08
2019-01-24T06:02:38.636Z,48.70
2019-01-24T06:05:09.089Z,49.63
2019-01-24T06:07:37.348Z,48.45
2019-01-24T06:10:08.879Z,47.75
2019-01-24T06:12:37.122Z,47.93
2019-01-24T06:15:08.998Z,50.98
2019-01-24T06:17:37.355Z,48.33
2019-01-24T06:20:07.840Z,50.05
2019-01-24T06:22:37.205Z,48.42
2019-01-24T06:25:08.443Z,46.10
2019-01-24T06:27:36.771Z,48.27
2019-01-24T06:30:16.685Z,49.88
2019-01-24T06:32:45.070Z,49.40
2019-01-24T06:35:13.308Z,52.60
2019-01-24T06:37:41.592Z,51.02
2019-01-24T06:40:12.197Z,51.65
2019-01-24T06:42:40.452Z,50.92
2019-01-24T06:45:22.192Z,50.78
2019-01-24T06:47:50.452Z,49.73
2019-01-24T06:50:19.657Z,48.70
2019-01-24T06:52:47.896Z,49.15
2019-01-24T06:55:24.908Z,50.97
2019-01-24T06:57:53.147Z,50.30
2019-01-24T07:00:21.428Z,50.45
2019-01-24T07:02:49.667Z,51.65
2019-01-24T07:05:17.912Z,51.65
2019-01-24T07:07:46.181Z,53.63
2019-01-24T07:10:16.344Z,50.70
2019-01-24T07:12:44.646Z,52.93
2019-01-24T07:15:15.196Z,51.40
2019-01-24T07:17:43.459Z,51.20
2019-01-24T07:20:13.932Z,49.90
2019-01-24T07:22:42.181Z,49.20
2019-01-24T07:25:13.072Z,50.45
2019-01-24T07:27:41.305Z,49.85
2019-01-24T07:30:17.334Z,50.30
2019-01-24T07:32:45.579Z,49.73
2019-01-24T07:35:15.572Z,49.33
2019-01-24T07:37:43.799Z,48.78
2019-01-24T07:40:16.764Z,49.60
2019-01-24T07:42:45.004Z,48.25
2019-01-24T07:45:16.057Z,51.77
2019-01-24T07:47:44.302Z,49.53
2019-01-24T07:50:13.672Z,50.92
2019-01-24T07:52:41.941Z,50.07
2019-01-24T07:55:11.911Z,49.33
2019-01-24T07:57:40.724Z,48.48
2019-01-24T08:00:14.848Z,48.53
2019-01-24T08:02:43.105Z,49.63
2019-01-24T08:05:13.176Z,50.00
2019-01-24T08:07:41.424Z,47.93
2019-01-24T08:10:15.332Z,48.20
2019-01-24T08:12:43.595Z,46.88
2019-01-24T08:15:16.584Z,48.90
2019-01-24T08:17:44.840Z,47.78
2019-01-24T08:20:15.357Z,49.10
2019-01-24T08:22:43.666Z,48.28
2019-01-24T08:25:12.012Z,48.15
2019-01-24T08:27:40.235Z,48.05
2019-01-24T08:30:11.744Z,48.17
2019-01-24T08:32:39.968Z,48.00
2019-01-24T08:35:09.224Z,48.52
2019-01-24T08:37:37.435Z,50.08
2019-01-24T08:40:08.924Z,49.98
2019-01-24T08:42:37.163Z,50.30
2019-01-24T08:45:08.034Z,50.75
2019-01-24T08:47:36.292Z,49.00
2019-01-24T08:50:08.028Z,49.18
2019-01-24T08:52:36.281Z,48.65
2019-01-24T08:55:07.927Z,48.70
2019-01-24T08:57:36.181Z,49.08
2019-01-24T09:00:10.537Z,49.90
2019-01-24T09:02:38.780Z,49.80
2019-01-24T09:05:07.588Z,49.63
2019-01-24T09:07:35.809Z,50.30
2019-01-24T09:10:07.002Z,49.42
2019-01-24T09:12:35.227Z,50.28
2019-01-24T09:15:03.552Z,50.35
2019-01-24T09:17:31.781Z,49.50
2019-01-24T09:20:00.048Z,49.40
2019-01-24T09:22:28.272Z,48.75
2019-01-24T09:24:56.495Z,48.02
2019-01-24T09:27:24.753Z,48.38
2019-01-24T09:29:52.996Z,49.65
2019-01-24T09:32:21.256Z,49.03
2019-01-24T09:34:49.485Z,48.00
2019-01-24T09:37:17.723Z,47.78
2019-01-24T09:39:45.948Z,48.98
2019-01-24T09:42:14.708Z,49.38
2019-01-24T09:44:43.159Z,49.20
2019-01-24T09:47:11.383Z,45.45
2019-01-24T09:49:39.637Z,49.77
2019-01-24T09:52:07.872Z,49.23
2019-01-24T09:54:36.136Z,49.35
2019-01-24T09:57:04.375Z,49.67
2019-01-24T09:59:32.645Z,47.00
2019-01-24T10:02:00.879Z,49.10
2019-01-24T10:04:29.156Z,50.17
2019-01-24T10:06:57.425Z,49.88
2019-01-24T10:09:25.648Z,49.60
2019-01-24T10:11:53.892Z,48.67
2019-01-24T10:14:22.127Z,48.67
2019-01-24T10:16:50.372Z,52.40
2019-01-24T10:19:18.588Z,50.58
2019-01-24T10:21:46.848Z,52.05
2019-01-24T10:24:15.085Z,50.98
2019-01-24T10:26:43.338Z,48.70
2019-01-24T10:29:11.604Z,50.28
2019-01-24T10:31:39.852Z,48.92
2019-01-24T10:34:08.196Z,47.93
2019-01-24T10:36:42.828Z,47.67
2019-01-24T10:39:08.339Z,46.83
2019-01-24T10:41:36.561Z,48.58
2019-01-24T10:44:04.811Z,45.20
2019-01-24T10:46:33.039Z,47.30
2019-01-24T10:49:01.544Z,47.65
2019-01-24T10:51:29.785Z,47.80
2019-01-24T10:53:58.000Z,48.42
2019-01-24T10:56:26.256Z,48.23
2019-01-24T10:58:54.729Z,47.03
2019-01-24T11:01:22.993Z,45.15
2019-01-24T11:03:51.211Z,46.10
2019-01-24T11:06:19.490Z,46.77
2019-01-24T11:08:47.717Z,47.90
2019-01-24T11:11:15.966Z,46.10
2019-01-24T11:13:44.255Z,46.40
2019-01-24T11:16:12.488Z,46.53
2019-01-24T11:18:40.768Z,46.18
2019-01-24T11:21:08.974Z,46.00
2019-01-24T11:23:37.245Z,46.05
2019-01-24T11:26:05.467Z,48.05
2019-01-24T11:28:33.759Z,45.15
2019-01-24T11:31:02.065Z,43.38
2019-01-24T11:33:30.636Z,42.43
2019-01-24T11:35:58.892Z,44.13
2019-01-24T11:38:27.109Z,41.28
2019-01-24T11:40:55.490Z,50.55
2019-01-24T11:43:23.701Z,52.13
2019-01-24T11:45:51.953Z,52.08
2019-01-24T11:48:20.189Z,52.03
2019-01-24T11:50:48.424Z,53.52
2019-01-24T11:53:16.664Z,54.18
2019-01-24T11:55:44.906Z,52.80
2019-01-24T11:58:13.180Z,51.68
2019-01-24T12:00:43.112Z,52.90
2019-01-24T12:03:11.351Z,52.95
2019-01-24T12:05:39.582Z,53.55
2019-01-24T12:08:07.915Z,53.90
2019-01-24T12:10:36.139Z,52.85
2019-01-24T12:13:04.423Z,53.08
2019-01-24T12:15:32.670Z,53.55
2019-01-24T12:18:00.908Z,53.80
2019-01-24T12:20:29.577Z,54.50
2019-01-24T12:22:57.829Z,53.30
2019-01-24T12:28:08.897Z,52.65
2019-01-24T12:30:37.322Z,51.00
2019-01-24T12:33:05.817Z,53.42
2019-01-24T12:35:34.128Z,52.57
2019-01-24T12:38:02.394Z,52.53
2019-01-24T12:40:30.710Z,52.95
2019-01-24T12:42:58.990Z,52.43
2019-01-24T12:45:32.312Z,54.05
2019-01-24T12:48:00.575Z,53.92
2019-01-24T12:50:28.834Z,52.50
2019-01-24T12:52:57.081Z,52.75
2019-01-24T12:55:25.612Z,52.08
2019-01-24T12:57:53.921Z,50.40
2019-01-24T13:00:27.668Z,51.13
2019-01-24T13:02:55.968Z,50.45
2019-01-24T13:05:24.280Z,49.58
2019-01-24T13:07:52.490Z,49.30
2019-01-24T13:10:22.592Z,49.18
2019-01-24T13:12:50.906Z,50.17
2019-01-24T13:15:21.526Z,47.90
2019-01-24T13:17:49.816Z,48.33
2019-01-24T13:20:18.086Z,49.90
2019-01-24T13:22:46.343Z,46.55
2019-01-24T13:25:17.433Z,48.20
2019-01-24T13:27:45.681Z,48.78
2019-01-24T13:30:16.826Z,48.87
2019-01-24T13:32:45.071Z,47.70
2019-01-24T13:35:13.339Z,48.20
2019-01-24T13:37:41.668Z,47.13
2019-01-24T13:40:13.035Z,47.13
2019-01-24T13:42:41.374Z,47.65
2019-01-24T13:45:12.703Z,46.63
2019-01-24T13:47:40.928Z,46.90
2019-01-24T13:50:12.118Z,48.48
2019-01-24T13:52:40.349Z,45.78
2019-01-24T13:55:08.669Z,45.65
2019-01-24T13:57:37.012Z,45.33
2019-01-24T14:00:14.665Z,47.35
2019-01-24T14:02:42.901Z,47.03
2019-01-24T14:05:14.402Z,46.80
2019-01-24T14:07:42.648Z,47.73
2019-01-24T14:10:13.880Z,46.90
2019-01-24T14:12:42.108Z,46.88
2019-01-24T14:15:15.955Z,47.47
2019-01-24T14:17:44.283Z,47.08
2019-01-24T14:20:15.509Z,46.85
2019-01-24T14:22:43.776Z,45.87
2019-01-24T14:25:17.295Z,47.33
2019-01-24T14:27:45.547Z,45.90
2019-01-24T14:30:19.382Z,45.55
2019-01-24T14:32:47.648Z,45.35
2019-01-24T14:35:15.904Z,46.85
2019-01-24T14:37:44.217Z,47.03
2019-01-24T14:40:14.037Z,46.58
2019-01-24T14:42:42.342Z,46.77
2019-01-24T14:45:19.880Z,45.38
2019-01-24T14:47:48.106Z,45.85
2019-01-24T14:50:19.061Z,45.48
2019-01-24T14:52:47.297Z,45.35
2019-01-24T14:55:15.585Z,45.88
2019-01-24T14:57:44.031Z,45.58
2019-01-24T15:00:21.657Z,46.30
2019-01-24T15:02:49.887Z,45.83
2019-01-24T15:05:18.115Z,44.55
2019-01-24T15:07:47.490Z,44.63
2019-01-24T15:10:15.988Z,43.52
2019-01-24T15:12:44.239Z,43.17
2019-01-24T15:15:15.985Z,44.00
2019-01-24T15:17:44.204Z,41.50
2019-01-24T15:20:14.090Z,42.35
2019-01-24T15:22:42.340Z,42.27
2019-01-24T15:25:12.545Z,43.05
2019-01-24T15:27:40.804Z,42.88
2019-01-24T15:30:14.772Z,40.50
2019-01-24T15:32:43.034Z,42.93
2019-01-24T15:35:11.308Z,42.75
2019-01-24T15:37:39.546Z,42.27
2019-01-24T15:40:19.550Z,45.48
2019-01-24T15:42:47.805Z,44.18
2019-01-24T15:45:17.076Z,42.53
2019-01-24T15:47:45.413Z,43.08
2019-01-24T15:50:16.196Z,42.55
2019-01-24T15:52:44.453Z,42.43
2019-01-24T15:55:12.715Z,42.43
2019-01-24T15:57:40.981Z,41.70
2019-01-24T16:00:18.161Z,44.67
2019-01-24T16:02:46.393Z,44.30
2019-01-24T16:05:14.727Z,46.20
2019-01-24T16:07:42.960Z,46.83
2019-01-24T16:10:14.051Z,48.10
2019-01-24T16:12:42.287Z,46.58
2019-01-24T16:15:20.040Z,46.25
2019-01-24T16:17:48.265Z,46.05
2019-01-24T16:20:19.399Z,46.10
2019-01-24T16:22:47.700Z,45.80
2019-01-24T16:25:17.999Z,45.88
2019-01-24T16:27:46.261Z,45.58
2019-01-24T16:30:19.395Z,47.95
2019-01-24T16:32:47.736Z,45.03
2019-01-24T16:35:17.716Z,42.65
2019-01-24T16:37:45.971Z,44.95
2019-01-24T16:40:22.794Z,46.37
2019-01-24T16:42:51.048Z,47.48
2019-01-24T16:45:21.364Z,47.93
2019-01-24T16:47:49.590Z,49.63
2019-01-24T16:50:19.494Z,48.98
2019-01-24T16:52:47.773Z,51.02
2019-01-24T16:55:17.534Z,50.83
2019-01-24T16:57:46.993Z,49.13
2019-01-24T17:00:28.947Z,51.40
2019-01-24T17:02:57.274Z,50.25
2019-01-24T17:05:25.511Z,50.88
2019-01-24T17:07:53.780Z,52.00
2019-01-24T17:10:27.621Z,52.50
2019-01-24T17:12:55.883Z,51.07
2019-01-24T17:15:24.123Z,51.63
2019-01-24T17:17:52.465Z,50.95
2019-01-24T17:20:23.422Z,51.58
2019-01-24T17:22:52.044Z,51.50
2019-01-24T17:25:21.231Z,52.83
2019-01-24T17:27:49.470Z,53.92
2019-01-24T17:30:20.763Z,53.05
2019-01-24T17:32:49.003Z,53.02
2019-01-24T17:35:17.266Z,52.90
2019-01-24T17:37:45.503Z,52.17
2019-01-24T17:40:25.607Z,53.75
2019-01-24T17:42:53.838Z,53.55
2019-01-24T17:45:22.168Z,52.98
2019-01-24T17:47:50.464Z,53.43
2019-01-24T17:50:18.783Z,48.48
2019-01-24T17:52:47.163Z,51.45
2019-01-24T17:55:27.168Z,50.98
2019-01-24T17:57:55.444Z,52.15
2019-01-24T18:00:25.484Z,52.10
2019-01-24T18:02:53.752Z,53.00
2019-01-24T18:05:22.081Z,52.70
2019-01-24T18:07:50.327Z,50.38
2019-01-24T18:10:27.152Z,52.77
2019-01-24T18:12:55.435Z,51.60
2019-01-24T18:15:25.677Z,52.70
2019-01-24T18:17:53.920Z,52.20
2019-01-24T18:20:33.682Z,52.85
2019-01-24T18:23:02.104Z,51.05
2019-01-24T18:25:30.356Z,52.50
2019-01-24T18:27:58.584Z,51.88
2019-01-24T18:30:28.395Z,53.05
2019-01-24T18:32:56.633Z,54.00
2019-01-24T18:35:25.048Z,54.50
2019-01-24T18:37:53.308Z,52.55
2019-01-24T18:40:26.405Z,52.43
2019-01-24T18:42:55.207Z,52.05
2019-01-24T18:45:41.476Z,53.60
2019-01-24T18:48:09.744Z,54.88
2019-01-24T18:50:38.017Z,53.90
2019-01-24T18:53:06.303Z,55.10
2019-01-24T18:55:37.201Z,53.02
2019-01-24T18:58:05.786Z,54.00
2019-01-24T19:00:38.398Z,53.30
2019-01-24T19:03:07.580Z,54.08
2019-01-24T19:05:35.890Z,53.68
2019-01-24T19:08:04.351Z,53.63
2019-01-24T19:10:32.585Z,53.50
2019-01-24T19:13:00.861Z,53.42
2019-01-24T19:15:29.148Z,53.10
2019-01-24T19:17:57.378Z,53.35
2019-01-24T19:20:25.614Z,52.60
2019-01-24T19:22:53.881Z,51.00
2019-01-24T19:25:22.803Z,52.20
2019-01-24T19:27:51.067Z,52.08
2019-01-24T19:30:31.208Z,53.10
2019-01-24T19:32:59.520Z,52.60
2019-01-24T19:35:27.812Z,54.30
2019-01-24T19:37:56.095Z,52.40
2019-01-24T19:40:28.952Z,52.85
2019-01-24T19:42:57.180Z,52.25
2019-01-24T19:45:26.806Z,53.42
2019-01-24T19:47:55.066Z,54.15
2019-01-24T19:50:25.452Z,55.03
2019-01-24T19:52:53.807Z,52.45
2019-01-24T19:55:22.076Z,53.40
2019-01-24T19:57:50.308Z,53.87
2019-01-24T20:00:27.668Z,54.05
2019-01-24T20:02:55.976Z,53.92
2019-01-24T20:05:24.221Z,54.25
2019-01-24T20:07:52.503Z,53.87
2019-01-24T20:10:23.352Z,54.85
2019-01-24T20:12:51.604Z,55.05
2019-01-24T20:15:21.625Z,54.53
2019-01-24T20:17:49.862Z,53.83
2019-01-24T20:20:18.443Z,53.95
2019-01-24T20:22:46.881Z,54.13
2019-01-24T20:25:17.555Z,54.08
2019-01-24T20:27:45.787Z,53.23
2019-01-24T20:30:19.088Z,51.77
2019-01-24T20:32:47.325Z,53.25
2019-01-24T20:35:40.608Z,53.15
2019-01-24T20:38:10.484Z,53.00
2019-01-24T20:40:39.053Z,54.13
2019-01-24T20:43:10.757Z,52.60
2019-01-24T20:45:39.300Z,53.23
2019-01-24T20:48:07.529Z,53.78
2019-01-24T20:50:35.817Z,52.50
2019-01-24T20:53:04.454Z,53.23
2019-01-24T20:55:32.731Z,52.75
2019-01-24T20:58:00.961Z,51.33
2019-01-24T21:00:29.240Z,52.20
2019-01-24T21:02:57.485Z,52.38
2019-01-24T21:05:26.036Z,52.03
2019-01-24T21:07:54.307Z,52.88
2019-01-24T21:10:46.297Z,52.03
2019-01-24T21:13:14.849Z,52.13
2019-01-24T21:15:43.992Z,50.78
2019-01-24T21:18:12.293Z,51.18
2019-01-24T21:20:40.535Z,51.60
2019-01-24T21:23:08.777Z,49.88
2019-01-24T21:25:37.045Z,51.10
2019-01-24T21:28:05.364Z,51.23
2019-01-24T21:30:35.573Z,52.43
2019-01-24T21:33:04.363Z,53.28
2019-01-24T21:35:32.628Z,51.15
2019-01-24T21:38:01.009Z,52.27
2019-01-24T21:40:29.271Z,52.62
2019-01-24T21:42:57.504Z,53.60
2019-01-24T21:45:28.546Z,53.02
2019-01-24T21:47:56.804Z,52.33
2019-01-24T21:50:27.298Z,53.65
2019-01-24T21:52:55.568Z,53.85
2019-01-24T21:55:23.860Z,54.05
2019-01-24T21:57:52.156Z,53.30
2019-01-24T22:00:22.324Z,51.07
2019-01-24T22:02:50.598Z,50.52
2019-01-24T22:05:18.973Z,49.67
2019-01-24T22:07:47.211Z,49.95
2019-01-24T22:10:17.936Z,51.37
2019-01-24T22:12:46.176Z,52.45
2019-01-24T22:15:16.872Z,52.83
2019-01-24T22:17:45.129Z,53.30
2019-01-24T22:20:14.937Z,55.30
2019-01-24T22:22:43.171Z,55.65
2019-01-24T22:25:22.664Z,54.98
2019-01-24T22:27:50.928Z,55.75
2019-01-24T22:30:29.361Z,56.95
2019-01-24T22:32:57.659Z,57.27
2019-01-24T22:35:25.911Z,57.83
2019-01-24T22:37:54.176Z,55.98
2019-01-24T22:40:22.412Z,57.08
2019-01-24T22:42:50.693Z,55.88
2019-01-24T22:45:21.161Z,55.40
2019-01-24T22:47:49.423Z,56.18
2019-01-24T22:50:17.656Z,57.03
2019-01-24T22:52:46.740Z,58.30
2019-01-24T22:55:15.002Z,56.60
2019-01-24T22:57:43.232Z,54.98
2019-01-24T23:00:19.153Z,56.98
2019-01-24T23:02:47.380Z,56.02
2019-01-24T23:05:15.686Z,56.98
2019-01-24T23:07:43.923Z,56.90
2019-01-24T23:10:12.168Z,57.40
2019-01-24T23:12:40.432Z,57.00
2019-01-24T23:15:10.910Z,57.98
2019-01-24T23:17:39.137Z,57.63
2019-01-24T23:20:10.352Z,57.67
2019-01-24T23:22:38.580Z,58.00
2019-01-24T23:25:06.828Z,57.83
2019-01-24T23:27:35.092Z,55.97
2019-01-24T23:30:05.001Z,56.02
2019-01-24T23:32:33.245Z,56.40
2019-01-24T23:35:01.531Z,57.58
2019-01-24T23:37:29.768Z,54.30
2019-01-24T23:39:58.008Z,55.50
2019-01-24T23:42:26.299Z,54.27
2019-01-24T23:44:54.548Z,55.75
2019-01-24T23:47:22.846Z,55.70
2019-01-24T23:49:51.108Z,54.38
2019-01-24T23:52:19.346Z,55.23
2019-01-24T23:54:47.575Z,54.45
2019-01-24T23:57:15.852Z,53.87
2019-01-24T23:59:44.088Z,55.00
